createdAt,value
2022-08-11T00:03:42.621Z,0
2022-08-11T00:13:14.958Z,0
2022-08-11T00:22:51.103Z,0
2022-08-11T00:42:04.947Z,0
2022-08-11T00:51:57.614Z,0
2022-08-11T01:01:18.829Z,0
2022-08-11T01:10:55.745Z,0
2022-08-11T01:30:10.345Z,0
2022-08-11T02:08:38.402Z,0
2022-08-11T02:18:15.245Z,0
2022-08-11T02:27:51.857Z,0
2022-08-11T02:37:28.491Z,0
2022-08-11T02:47:05.707Z,0
2022-08-11T02:56:42.212Z,0
2022-08-11T03:06:19.138Z,0
2022-08-11T03:15:55.795Z,0
2022-08-11T03:25:32.329Z,0
2022-08-11T03:44:46.172Z,0
2022-08-11T03:54:23.079Z,5.63
2022-08-11T04:03:59.524Z,16.88
2022-08-11T04:13:36.576Z,28.13
2022-08-11T04:24:13.512Z,39.38
2022-08-11T04:42:31.645Z,67.5
2022-08-11T04:52:05.947Z,78.75
2022-08-11T05:01:43.610Z,90
2022-08-11T05:11:20.747Z,101.25
2022-08-11T05:30:35.597Z,118.13
2022-08-11T05:49:51.463Z,135
2022-08-11T05:59:28.911Z,146.25
2022-08-11T06:09:06.619Z,151.88
2022-08-11T06:28:22.352Z,106.88
2022-08-11T06:38:00.270Z,168.75
2022-08-11T06:47:38.028Z,174.38
2022-08-11T06:57:31.350Z,180
2022-08-11T07:06:53.559Z,185.63
2022-08-11T07:16:31.696Z,196.88
2022-08-11T07:26:09.280Z,202.5
2022-08-11T07:35:48.712Z,208.13
2022-08-11T07:45:25.974Z,213.75
2022-08-11T07:55:04.288Z,219.38
2022-08-11T08:04:46.751Z,230.63
2022-08-11T08:33:37.859Z,258.75
2022-08-11T08:43:16.447Z,270
2022-08-11T08:52:55.248Z,292.5
2022-08-11T09:02:35.082Z,309.38
2022-08-11T09:12:13.528Z,337.5
2022-08-11T09:21:52.514Z,354.38
2022-08-11T09:31:34.496Z,478.13
2022-08-11T09:41:11.751Z,2390.63
2022-08-11T09:50:58.679Z,2407.5
2022-08-11T10:00:49.142Z,2908.13
2022-08-11T10:10:32.393Z,2514.38
2022-08-11T10:20:14.271Z,2756.25
2022-08-11T10:29:56.364Z,3161.25
2022-08-11T10:39:37.282Z,3470.63
2022-08-11T10:49:16.699Z,2514.38
2022-08-11T11:18:17.391Z,3487.5
2022-08-11T11:37:31.766Z,3729.38
2022-08-11T11:47:09.304Z,3870
2022-08-11T12:25:59.588Z,4455
2022-08-11T12:35:26.585Z,3988.13
2022-08-11T12:45:06.926Z,3324.38
2022-08-11T12:54:45.172Z,2913.75
2022-08-11T13:04:23.054Z,2970
2022-08-11T13:14:03.948Z,2953.13
2022-08-11T13:33:21.582Z,3633.75
2022-08-11T13:42:59.851Z,3375
2022-08-11T13:52:37.046Z,3116.25
2022-08-11T14:02:20.975Z,2660.63
2022-08-11T14:12:20.584Z,2925
2022-08-11T14:21:34.718Z,2542.5
2022-08-11T14:31:10.535Z,2643.75
2022-08-11T14:40:48.060Z,2553.75
2022-08-11T15:00:08.561Z,2604.38
2022-08-11T15:10:10.089Z,2424.38
2022-08-11T15:19:11.394Z,1974.38
2022-08-11T15:47:51.398Z,731.25
2022-08-11T15:57:27.879Z,579.38
2022-08-11T16:07:02.921Z,556.88
2022-08-11T16:16:37.372Z,298.13
2022-08-11T16:27:06.489Z,241.88
2022-08-11T16:35:46.153Z,219.38
2022-08-11T16:54:59.100Z,185.63
2022-08-11T17:04:36.013Z,174.38
2022-08-11T17:14:12.628Z,135
2022-08-11T17:33:27.927Z,123.75
2022-08-11T17:43:04.081Z,118.13
2022-08-11T17:52:41.410Z,84.38
2022-08-11T18:02:18.159Z,56.25
2022-08-11T18:12:06.279Z,39.38
2022-08-11T18:21:31.386Z,28.13
2022-08-11T18:31:12.424Z,16.88
2022-08-11T18:40:44.594Z,5.63
2022-08-11T18:50:21.025Z,5.63
2022-08-11T19:09:34.227Z,0
2022-08-11T19:19:11.112Z,0
2022-08-11T19:28:47.835Z,0
2022-08-11T19:38:24.436Z,0
2022-08-11T19:48:20.996Z,0
2022-08-11T19:57:40.066Z,0
2022-08-11T20:07:14.593Z,0
2022-08-11T20:16:51.370Z,0
2022-08-11T20:26:30.593Z,0
2022-08-11T20:36:04.395Z,0
2022-08-11T20:45:52.064Z,0
2022-08-11T20:55:19.127Z,0
2022-08-11T21:14:30.838Z,0
2022-08-11T21:24:07.600Z,0
2022-08-11T21:33:44.615Z,0
2022-08-11T21:43:21.304Z,0
2022-08-11T21:52:57.862Z,0
2022-08-11T22:02:34.027Z,0
2022-08-11T22:12:29.362Z,0
2022-08-11T22:21:59.614Z,0
2022-08-11T22:31:24.553Z,0
2022-08-11T22:41:01.205Z,0
2022-08-11T22:50:37.303Z,0
2022-08-11T23:00:14.264Z,0
2022-08-11T23:09:50.967Z,0
2022-08-11T23:20:04.863Z,0
2022-08-11T23:29:05.114Z,0
2022-08-11T23:38:41.446Z,0
2022-08-11T23:48:17.972Z,0
2022-08-11T23:57:54.768Z,0
